createdAt,value
2023-05-19T00:00:55.654Z,68.38
2023-05-19T00:03:22.826Z,68.31
2023-05-19T00:05:50.542Z,67.78
2023-05-19T00:08:18.438Z,68.14
2023-05-19T00:10:45.409Z,68.10
2023-05-19T00:13:12.664Z,67.62
2023-05-19T00:15:40.202Z,70.11
2023-05-19T00:18:09.041Z,69.03
2023-05-19T00:20:35.854Z,69.29
2023-05-19T00:23:02.367Z,69.54
2023-05-19T00:25:28.838Z,69.55
2023-05-19T00:27:55.360Z,69.23
2023-05-19T00:30:22.982Z,69.80
2023-05-19T00:32:49.625Z,69.38
2023-05-19T00:35:16.524Z,69.84
2023-05-19T00:37:43.163Z,69.66
2023-05-19T00:40:10.261Z,69.36
2023-05-19T00:42:36.955Z,69.18
2023-05-19T00:45:03.654Z,69.89
2023-05-19T00:47:30.281Z,70.10
2023-05-19T00:49:56.879Z,70.53
2023-05-19T00:52:23.645Z,70.30
2023-05-19T00:54:52.853Z,68.92
2023-05-19T00:57:20.870Z,70.21
2023-05-19T00:59:48.536Z,70.04
2023-05-19T01:02:15.165Z,68.85
2023-05-19T01:04:43.826Z,69.52
2023-05-19T01:07:12.473Z,69.83
2023-05-19T01:09:40.749Z,69.85
2023-05-19T01:12:08.676Z,69.59
2023-05-19T01:14:35.366Z,69.70
2023-05-19T01:17:14.313Z,71.04
2023-05-19T01:19:56.818Z,71.28
2023-05-19T01:22:48.691Z,71.16
2023-05-19T01:25:42.667Z,70.79
2023-05-19T01:28:48.346Z,71.71
2023-05-19T01:31:16.910Z,72.15
2023-05-19T01:33:44.258Z,71.71
2023-05-19T01:36:12.285Z,72.36
2023-05-19T01:38:39.995Z,72.97
2023-05-19T01:41:06.979Z,73.41
2023-05-19T01:43:35.959Z,73.67
2023-05-19T01:46:03.198Z,72.93
2023-05-19T01:48:30.533Z,73.16
2023-05-19T01:50:58.002Z,73.31
2023-05-19T01:53:25.373Z,72.36
2023-05-19T01:55:55.171Z,71.39
2023-05-19T01:58:52.461Z,71.54
2023-05-19T02:01:30.437Z,72.36
2023-05-19T02:04:26.406Z,73.14
2023-05-19T02:07:12.286Z,73.07
2023-05-19T02:09:56.869Z,72.58
2023-05-19T02:12:25.940Z,73.64
2023-05-19T02:15:06.072Z,72.90
2023-05-19T02:17:38.368Z,73.39
2023-05-19T02:20:05.991Z,74.11
2023-05-19T02:22:32.852Z,74.21
2023-05-19T02:24:59.456Z,75.46
2023-05-19T02:27:26.362Z,74.58
2023-05-19T02:29:53.279Z,73.76
2023-05-19T02:32:20.767Z,75.75
2023-05-19T02:34:47.744Z,75.27
2023-05-19T02:37:15.198Z,75.53
2023-05-19T02:39:42.781Z,76.41
2023-05-19T02:42:09.588Z,76.52
2023-05-19T02:44:36.536Z,76.28
2023-05-19T02:47:03.172Z,76.68
2023-05-19T02:49:35.885Z,76.64
2023-05-19T02:52:03.547Z,76.59
2023-05-19T02:54:30.844Z,77.23
2023-05-19T02:56:58.104Z,77.13
2023-05-19T02:59:25.727Z,77.15
2023-05-19T03:01:56.079Z,77.75
2023-05-19T03:04:22.678Z,78.02
2023-05-19T03:06:50.167Z,77.86
2023-05-19T03:09:16.735Z,78.60
2023-05-19T03:11:43.250Z,78.26
2023-05-19T03:14:09.876Z,76.87
2023-05-19T03:16:36.621Z,78.06
2023-05-19T03:19:03.391Z,77.25
2023-05-19T03:21:30.445Z,77.36
2023-05-19T03:23:57.204Z,77.80
2023-05-19T03:26:24.696Z,76.51
2023-05-19T03:28:51.231Z,76.96
2023-05-19T03:31:17.805Z,75.61
2023-05-19T03:33:44.545Z,75.49
2023-05-19T03:36:12.807Z,76.06
2023-05-19T03:38:39.733Z,74.70
2023-05-19T03:41:06.158Z,75.49
2023-05-19T03:43:32.803Z,75.60
2023-05-19T03:46:02.799Z,74.51
2023-05-19T03:48:49.702Z,74.97
2023-05-19T03:51:43.098Z,75.22
2023-05-19T03:54:32.632Z,74.99
2023-05-19T03:56:59.198Z,74.15
2023-05-19T03:59:25.875Z,73.30
2023-05-19T04:01:52.797Z,73.24
2023-05-19T04:04:19.522Z,73.96
2023-05-19T04:06:46.258Z,73.43
2023-05-19T04:09:15.835Z,74.00
2023-05-19T04:11:43.121Z,73.88
2023-05-19T04:14:09.824Z,73.67
2023-05-19T04:16:36.770Z,73.80
2023-05-19T04:19:03.357Z,74.22
2023-05-19T04:21:29.833Z,74.32
2023-05-19T04:23:59.196Z,73.11
2023-05-19T04:26:26.934Z,73.14
2023-05-19T04:28:57.831Z,72.16
2023-05-19T04:31:24.546Z,73.00
2023-05-19T04:33:53.478Z,72.56
2023-05-19T04:36:21.761Z,72.61
2023-05-19T04:38:54.851Z,72.81
2023-05-19T04:41:23.461Z,72.62
2023-05-19T04:43:50.083Z,72.53
2023-05-19T04:46:18.272Z,72.59
2023-05-19T04:48:45.216Z,72.12
2023-05-19T04:51:14.174Z,72.02
2023-05-19T04:53:41.775Z,72.03
2023-05-19T04:56:13.624Z,72.29
2023-05-19T04:58:41.978Z,72.21
2023-05-19T05:01:09.620Z,71.15
2023-05-19T05:03:37.062Z,70.88
2023-05-19T05:06:04.573Z,71.25
2023-05-19T05:08:31.160Z,70.87
2023-05-19T05:10:58.726Z,70.78
2023-05-19T05:13:26.303Z,70.04
2023-05-19T05:15:54.196Z,70.30
2023-05-19T05:18:21.297Z,69.16
2023-05-19T05:20:48.350Z,69.95
2023-05-19T05:23:16.694Z,69.36
2023-05-19T05:25:47.325Z,70.01
2023-05-19T05:28:15.599Z,70.08
2023-05-19T05:30:43.692Z,69.94
2023-05-19T05:33:10.745Z,69.95
2023-05-19T05:35:39.459Z,69.13
2023-05-19T05:38:08.099Z,67.96
2023-05-19T05:40:36.182Z,68.24
2023-05-19T05:43:03.961Z,68.73
2023-05-19T05:45:34.311Z,67.66
2023-05-19T05:48:01.654Z,67.21
2023-05-19T05:50:29.802Z,67.32
2023-05-19T05:52:58.040Z,68.02
2023-05-19T05:55:26.586Z,66.93
2023-05-19T05:57:53.215Z,67.72
2023-05-19T06:00:21.297Z,67.42
2023-05-19T06:02:52.091Z,66.18
2023-05-19T06:05:19.673Z,66.96
2023-05-19T06:07:47.572Z,66.23
2023-05-19T06:10:19.469Z,65.25
2023-05-19T06:12:46.948Z,64.64
2023-05-19T06:15:13.465Z,66.06
2023-05-19T06:17:49.948Z,66.05
2023-05-19T06:20:18.069Z,65.77
2023-05-19T06:22:44.692Z,65.43
2023-05-19T06:25:11.734Z,65.35
2023-05-19T06:27:38.255Z,66.35
2023-05-19T06:30:04.916Z,65.19
2023-05-19T06:32:36.897Z,65.48
2023-05-19T06:35:03.513Z,64.65
2023-05-19T06:37:30.122Z,65.54
2023-05-19T06:39:57.105Z,65.00
2023-05-19T06:42:25.241Z,63.99
2023-05-19T06:45:06.957Z,64.84
2023-05-19T06:47:33.555Z,65.50
2023-05-19T06:50:00.371Z,63.70
2023-05-19T06:52:30.921Z,64.77
2023-05-19T06:54:57.781Z,63.47
2023-05-19T06:57:24.270Z,64.16
2023-05-19T06:59:51.015Z,64.45
2023-05-19T07:02:18.006Z,62.06
2023-05-19T07:04:44.466Z,62.07
2023-05-19T07:07:15.177Z,62.84
2023-05-19T07:09:42.537Z,61.66
2023-05-19T07:12:09.176Z,61.35
2023-05-19T07:14:36.519Z,61.67
2023-05-19T07:17:03.378Z,61.03
2023-05-19T07:19:30.046Z,61.09
2023-05-19T07:21:57.121Z,62.33
2023-05-19T07:24:24.884Z,61.10
2023-05-19T07:26:51.451Z,60.65
2023-05-19T07:29:17.888Z,61.71
2023-05-19T07:31:44.494Z,60.41
2023-05-19T07:34:11.310Z,60.79
2023-05-19T07:36:37.870Z,59.61
2023-05-19T07:39:04.367Z,59.65
2023-05-19T07:41:30.977Z,60.29
2023-05-19T07:43:57.423Z,58.68
2023-05-19T07:46:23.957Z,58.71
2023-05-19T07:48:50.585Z,57.42
2023-05-19T07:51:17.267Z,56.80
2023-05-19T07:53:43.858Z,57.40
2023-05-19T07:56:10.534Z,57.23
2023-05-19T07:58:37.236Z,55.67
2023-05-19T08:01:04.033Z,55.11
2023-05-19T08:03:31.007Z,56.20
2023-05-19T08:05:57.768Z,56.89
2023-05-19T08:08:24.268Z,57.87
2023-05-19T08:10:50.758Z,58.75
2023-05-19T08:13:17.293Z,58.20
2023-05-19T08:15:43.941Z,58.20
2023-05-19T08:18:10.623Z,57.81
2023-05-19T08:20:37.601Z,58.13
2023-05-19T08:23:04.117Z,59.14
2023-05-19T08:25:30.613Z,58.92
2023-05-19T08:27:57.149Z,59.75
2023-05-19T08:30:23.852Z,59.65
2023-05-19T08:32:50.434Z,57.47
2023-05-19T08:35:16.952Z,59.88
2023-05-19T08:37:43.494Z,58.24
2023-05-19T08:40:16.167Z,58.51
2023-05-19T08:42:43.034Z,58.50
2023-05-19T08:45:09.964Z,59.25
2023-05-19T08:47:36.876Z,59.16
2023-05-19T08:50:10.727Z,58.65
2023-05-19T08:52:53.251Z,59.23
2023-05-19T08:55:35.473Z,58.51
2023-05-19T08:58:04.400Z,59.02
2023-05-19T09:00:31.222Z,59.84
2023-05-19T09:03:10.832Z,57.94
2023-05-19T09:05:46.397Z,58.50
2023-05-19T09:08:13.353Z,56.70
2023-05-19T09:10:40.096Z,58.78
2023-05-19T09:13:06.869Z,59.61
2023-05-19T09:15:36.704Z,58.42
2023-05-19T09:18:10.814Z,59.89
2023-05-19T09:20:40.044Z,57.24
2023-05-19T09:23:06.662Z,57.35
2023-05-19T09:25:33.517Z,57.38
2023-05-19T09:28:00.493Z,55.53
2023-05-19T09:30:27.073Z,55.94
2023-05-19T09:32:53.884Z,55.67
2023-05-19T09:35:21.584Z,55.02
2023-05-19T09:37:48.302Z,53.33
2023-05-19T09:40:15.755Z,54.39
2023-05-19T09:42:43.994Z,54.40
2023-05-19T09:45:11.338Z,53.81
2023-05-19T09:47:39.687Z,52.93
2023-05-19T09:50:08.845Z,53.50
2023-05-19T09:52:37.172Z,54.80
2023-05-19T09:55:05.648Z,55.63
2023-05-19T09:57:37.235Z,56.33
2023-05-19T10:00:11.857Z,57.02
2023-05-19T10:02:42.921Z,57.25
2023-05-19T10:05:17.564Z,56.97
2023-05-19T10:07:45.767Z,55.91
2023-05-19T10:10:13.915Z,56.37
2023-05-19T10:12:41.634Z,56.58
2023-05-19T10:15:12.987Z,57.69
2023-05-19T10:17:41.369Z,55.72
2023-05-19T10:20:10.915Z,55.98
2023-05-19T10:22:38.198Z,55.16
2023-05-19T10:25:05.866Z,55.97
2023-05-19T10:27:36.719Z,56.18
2023-05-19T10:30:16.307Z,54.52
2023-05-19T10:32:46.612Z,56.41
2023-05-19T10:35:41.030Z,56.24
2023-05-19T10:38:10.537Z,55.03
2023-05-19T10:40:43.761Z,54.03
2023-05-19T10:43:25.494Z,55.21
2023-05-19T10:45:53.921Z,54.11
2023-05-19T10:48:22.090Z,51.90
2023-05-19T10:50:52.868Z,51.51
2023-05-19T10:53:22.073Z,50.25
2023-05-19T10:55:59.140Z,50.62
2023-05-19T10:58:43.948Z,52.16
2023-05-19T11:01:16.475Z,51.97
2023-05-19T11:03:53.929Z,51.88
2023-05-19T11:06:25.321Z,52.19
2023-05-19T11:09:15.431Z,52.92
2023-05-19T11:11:49.659Z,53.55
2023-05-19T11:14:19.434Z,53.58
2023-05-19T11:16:51.338Z,53.19
2023-05-19T11:19:20.066Z,53.53
2023-05-19T11:21:52.447Z,51.41
2023-05-19T11:24:44.518Z,51.48
2023-05-19T11:27:33.440Z,52.54
2023-05-19T11:30:11.440Z,52.08
2023-05-19T11:32:42.774Z,50.75
2023-05-19T11:35:10.165Z,52.90
2023-05-19T11:37:37.132Z,51.09
2023-05-19T11:40:06.874Z,51.47
2023-05-19T11:42:35.297Z,51.58
2023-05-19T11:45:02.292Z,51.31
2023-05-19T11:47:28.961Z,51.31
2023-05-19T11:49:58.923Z,52.04
2023-05-19T11:52:27.492Z,51.81
2023-05-19T11:54:54.028Z,50.36
2023-05-19T11:57:20.983Z,52.39
2023-05-19T11:59:49.690Z,50.96
2023-05-19T12:02:21.534Z,50.33
2023-05-19T12:04:52.092Z,53.06
2023-05-19T12:07:20.630Z,51.32
2023-05-19T12:09:47.422Z,51.66
2023-05-19T12:12:19.061Z,51.62
2023-05-19T12:14:47.279Z,51.08
2023-05-19T12:17:21.166Z,50.57
2023-05-19T12:19:49.037Z,51.18
2023-05-19T12:22:17.696Z,51.99
2023-05-19T12:24:45.157Z,52.19
2023-05-19T12:27:19.624Z,50.02
2023-05-19T12:30:00.060Z,51.08
2023-05-19T12:32:28.970Z,51.01
2023-05-19T12:34:56.436Z,50.75
2023-05-19T12:37:27.599Z,51.90
2023-05-19T12:39:56.229Z,51.09
2023-05-19T12:42:23.467Z,49.30
2023-05-19T12:44:52.676Z,47.10
2023-05-19T12:47:20.197Z,47.26
2023-05-19T12:49:56.931Z,45.68
2023-05-19T12:52:23.994Z,45.46
2023-05-19T12:54:57.773Z,46.49
2023-05-19T12:57:26.104Z,50.41
2023-05-19T12:59:53.213Z,48.36
2023-05-19T13:02:21.001Z,49.56
2023-05-19T13:04:48.507Z,48.96
2023-05-19T13:07:14.995Z,50.08
2023-05-19T13:09:42.216Z,50.59
2023-05-19T13:12:08.951Z,51.06
2023-05-19T13:14:35.483Z,51.42
2023-05-19T13:17:02.060Z,51.58
2023-05-19T13:19:29.108Z,52.23
2023-05-19T13:21:55.613Z,51.82
2023-05-19T13:24:22.073Z,51.62
2023-05-19T13:26:48.824Z,50.62
2023-05-19T13:29:15.410Z,50.51
2023-05-19T13:31:42.104Z,51.27
2023-05-19T13:34:08.807Z,50.63
2023-05-19T13:36:36.570Z,51.31
2023-05-19T13:39:03.484Z,50.50
2023-05-19T13:41:30.047Z,49.56
2023-05-19T13:43:59.617Z,50.66
2023-05-19T13:46:33.096Z,51.18
2023-05-19T13:49:10.351Z,49.70
2023-05-19T13:51:37.579Z,50.16
2023-05-19T13:54:05.030Z,50.58
2023-05-19T13:56:31.841Z,49.81
2023-05-19T13:58:58.406Z,49.87
2023-05-19T14:01:24.880Z,49.75
2023-05-19T14:03:51.808Z,50.55
2023-05-19T14:06:18.403Z,49.80
2023-05-19T14:08:45.510Z,49.71
2023-05-19T14:11:21.830Z,50.41
2023-05-19T14:13:52.884Z,49.68
2023-05-19T14:16:21.953Z,50.19
2023-05-19T14:18:48.988Z,51.34
2023-05-19T14:21:15.708Z,51.73
2023-05-19T14:23:42.219Z,50.88
2023-05-19T14:26:08.631Z,50.40
2023-05-19T14:28:35.268Z,50.25
2023-05-19T14:31:01.854Z,50.52
2023-05-19T14:33:29.761Z,51.00
2023-05-19T14:36:01.996Z,50.35
2023-05-19T14:38:29.459Z,50.85
2023-05-19T14:40:56.522Z,50.87
2023-05-19T14:43:23.233Z,50.23
2023-05-19T14:45:50.154Z,49.79
2023-05-19T14:48:17.448Z,50.53
2023-05-19T14:50:44.356Z,49.98
2023-05-19T14:53:11.198Z,51.85
2023-05-19T14:55:37.736Z,52.07
2023-05-19T14:58:12.909Z,52.24
2023-05-19T15:00:48.005Z,50.62
2023-05-19T15:03:14.590Z,48.71
2023-05-19T15:05:41.172Z,48.94
2023-05-19T15:08:07.613Z,48.75
2023-05-19T15:10:34.331Z,49.35
2023-05-19T15:13:01.712Z,49.22
2023-05-19T15:15:28.352Z,49.54
2023-05-19T15:17:55.007Z,49.79
2023-05-19T15:20:21.630Z,49.17
2023-05-19T15:22:48.832Z,48.60
2023-05-19T15:25:15.475Z,46.62
2023-05-19T15:27:42.191Z,47.57
2023-05-19T15:30:09.174Z,48.37
2023-05-19T15:32:35.751Z,49.13
2023-05-19T15:35:02.451Z,49.39
2023-05-19T15:37:29.026Z,51.06
2023-05-19T15:39:55.479Z,51.37
2023-05-19T15:42:22.031Z,50.68
2023-05-19T15:44:48.452Z,50.51
2023-05-19T15:47:14.977Z,52.54
2023-05-19T15:49:41.445Z,51.69
2023-05-19T15:52:07.961Z,51.12
2023-05-19T15:54:34.458Z,50.94
2023-05-19T15:57:01.048Z,50.02
2023-05-19T15:59:27.676Z,49.81
2023-05-19T16:01:54.169Z,49.49
2023-05-19T16:04:20.967Z,51.06
2023-05-19T16:06:47.591Z,50.89
2023-05-19T16:09:14.107Z,51.47
2023-05-19T16:11:40.760Z,50.95
2023-05-19T16:14:07.268Z,51.52
2023-05-19T16:16:33.820Z,50.83
2023-05-19T16:19:00.400Z,52.22
2023-05-19T16:21:27.431Z,52.09
2023-05-19T16:23:53.857Z,51.96
2023-05-19T16:26:21.561Z,52.61
2023-05-19T16:28:48.087Z,52.62
2023-05-19T16:31:14.526Z,52.74
2023-05-19T16:33:41.324Z,53.86
2023-05-19T16:36:07.896Z,52.86
2023-05-19T16:38:34.410Z,53.89
2023-05-19T16:41:01.009Z,53.79
2023-05-19T16:43:27.441Z,52.53
2023-05-19T16:45:53.971Z,52.13
2023-05-19T16:48:20.641Z,54.02
2023-05-19T16:50:50.373Z,54.30
2023-05-19T16:53:17.293Z,53.82
2023-05-19T16:55:43.825Z,54.19
2023-05-19T16:59:50.621Z,54.38
2023-05-19T17:02:17.093Z,54.55
2023-05-19T17:04:43.686Z,54.95
2023-05-19T17:07:15.691Z,54.79
2023-05-19T17:09:43.115Z,55.74
2023-05-19T17:12:09.827Z,55.12
2023-05-19T17:14:36.621Z,55.68
2023-05-19T17:17:03.370Z,55.97
2023-05-19T17:19:30.023Z,55.59
2023-05-19T17:21:56.695Z,57.39
2023-05-19T17:24:23.227Z,55.94
2023-05-19T17:26:49.792Z,55.91
2023-05-19T17:29:16.308Z,56.73
2023-05-19T17:31:42.970Z,57.10
2023-05-19T17:34:09.639Z,56.63
2023-05-19T17:36:36.163Z,56.31
2023-05-19T17:39:02.651Z,58.13
2023-05-19T17:41:29.255Z,57.80
2023-05-19T17:43:55.825Z,57.39
2023-05-19T17:46:22.342Z,58.28
2023-05-19T17:48:48.921Z,58.28
2023-05-19T17:51:15.442Z,59.06
2023-05-19T17:53:42.485Z,58.26
2023-05-19T17:56:12.001Z,57.90
2023-05-19T17:58:38.923Z,59.02
2023-05-19T18:01:05.938Z,59.51
2023-05-19T18:03:32.988Z,59.56
2023-05-19T18:05:59.783Z,60.52
2023-05-19T18:08:27.762Z,59.57
2023-05-19T18:10:55.851Z,60.45
2023-05-19T18:13:23.576Z,60.58
2023-05-19T18:15:50.620Z,59.68
2023-05-19T18:18:17.233Z,60.93
2023-05-19T18:20:45.643Z,60.33
2023-05-19T18:23:12.205Z,60.72
2023-05-19T18:25:38.725Z,60.66
2023-05-19T18:28:05.348Z,61.72
2023-05-19T18:30:32.157Z,61.69
2023-05-19T18:33:02.082Z,62.33
2023-05-19T18:35:28.886Z,61.43
2023-05-19T18:37:56.622Z,61.89
2023-05-19T18:40:23.383Z,62.16
2023-05-19T18:42:50.556Z,62.42
2023-05-19T18:45:17.180Z,62.41
2023-05-19T18:47:43.679Z,63.49
2023-05-19T18:50:10.493Z,63.08
2023-05-19T18:52:37.012Z,63.28
2023-05-19T18:55:03.808Z,63.29
2023-05-19T18:57:30.421Z,63.98
2023-05-19T18:59:56.993Z,63.41
2023-05-19T19:02:23.585Z,64.05
2023-05-19T19:04:50.269Z,64.21
2023-05-19T19:07:16.880Z,64.38
2023-05-19T19:09:43.815Z,64.99
2023-05-19T19:12:10.807Z,64.35
2023-05-19T19:14:37.434Z,65.12
2023-05-19T19:17:04.028Z,64.93
2023-05-19T19:19:30.895Z,65.17
2023-05-19T19:21:57.707Z,65.83
2023-05-19T19:24:26.415Z,65.78
2023-05-19T19:26:53.042Z,66.06
2023-05-19T19:29:21.790Z,66.28
2023-05-19T19:31:48.580Z,66.64
2023-05-19T19:34:19.846Z,67.40
2023-05-19T19:36:47.808Z,67.26
2023-05-19T19:39:14.524Z,66.37
2023-05-19T19:41:41.118Z,66.73
2023-05-19T19:44:09.338Z,67.31
2023-05-19T19:46:35.944Z,67.75
2023-05-19T19:49:03.047Z,67.89
2023-05-19T19:51:29.747Z,67.51
2023-05-19T19:53:56.695Z,67.79
2023-05-19T19:56:24.749Z,66.66
2023-05-19T19:58:51.664Z,67.70
2023-05-19T20:01:20.658Z,68.04
2023-05-19T20:03:48.020Z,68.61
2023-05-19T20:06:14.810Z,67.81
2023-05-19T20:08:41.518Z,68.86
2023-05-19T20:11:08.303Z,68.58
2023-05-19T20:13:34.938Z,69.72
2023-05-19T20:16:02.136Z,69.94
2023-05-19T20:18:29.885Z,68.80
2023-05-19T20:20:56.817Z,69.65
2023-05-19T20:23:23.372Z,70.16
2023-05-19T20:26:06.695Z,70.22
2023-05-19T20:28:36.412Z,69.87
2023-05-19T20:31:02.880Z,69.95
2023-05-19T20:33:29.589Z,69.78
2023-05-19T20:35:56.133Z,70.52
2023-05-19T20:38:22.655Z,70.78
2023-05-19T20:40:49.388Z,71.42
2023-05-19T20:43:16.153Z,71.52
2023-05-19T20:45:44.174Z,71.55
2023-05-19T20:48:11.351Z,71.83
2023-05-19T20:50:39.223Z,72.46
2023-05-19T20:53:07.370Z,71.76
2023-05-19T20:55:36.124Z,72.59
2023-05-19T20:58:02.795Z,72.25
2023-05-19T21:00:30.522Z,72.17
2023-05-19T21:02:57.911Z,72.80
2023-05-19T21:05:24.884Z,72.23
2023-05-19T21:07:51.591Z,72.84
2023-05-19T21:10:18.387Z,73.06
2023-05-19T21:12:45.708Z,73.10
2023-05-19T21:15:12.841Z,72.31
2023-05-19T21:17:39.416Z,73.19
2023-05-19T21:20:06.248Z,73.16
2023-05-19T21:22:32.787Z,74.05
2023-05-19T21:24:59.332Z,73.84
2023-05-19T21:27:25.966Z,74.60
2023-05-19T21:29:55.497Z,75.14
2023-05-19T21:32:22.146Z,74.68
2023-05-19T21:34:48.883Z,75.23
2023-05-19T21:37:17.283Z,75.29
2023-05-19T21:39:44.282Z,75.72
2023-05-19T21:42:10.927Z,75.06
2023-05-19T21:44:37.603Z,75.25
2023-05-19T21:47:04.229Z,76.08
2023-05-19T21:49:31.304Z,76.04
2023-05-19T21:51:58.468Z,76.50
2023-05-19T21:54:25.159Z,76.38
2023-05-19T21:56:51.824Z,76.23
2023-05-19T21:59:18.412Z,77.01
2023-05-19T22:17:32.873Z,80.76
2023-05-19T22:19:59.390Z,80.91
2023-05-19T22:22:26.205Z,80.34
2023-05-19T22:24:52.770Z,79.95
2023-05-19T22:27:19.254Z,79.26
2023-05-19T22:29:45.873Z,79.41
2023-05-19T22:32:14.029Z,78.65
2023-05-19T22:34:40.764Z,79.89
2023-05-19T22:37:07.395Z,79.02
2023-05-19T22:39:33.934Z,79.29
2023-05-19T22:42:00.529Z,78.74
2023-05-19T22:44:27.620Z,78.59
2023-05-19T22:46:54.098Z,78.72
2023-05-19T22:49:22.869Z,78.32
2023-05-19T22:51:50.065Z,78.59
2023-05-19T22:54:16.729Z,79.19
2023-05-19T22:56:46.375Z,78.31
2023-05-19T22:59:13.156Z,78.82
2023-05-19T23:01:39.822Z,78.52
2023-05-19T23:04:06.568Z,78.68
2023-05-19T23:06:33.183Z,79.40
2023-05-19T23:09:01.013Z,79.31
2023-05-19T23:11:27.703Z,78.35
2023-05-19T23:13:54.294Z,79.26
2023-05-19T23:16:20.991Z,78.55
2023-05-19T23:18:47.624Z,78.35
2023-05-19T23:21:14.267Z,78.86
2023-05-19T23:23:52.148Z,78.34
2023-05-19T23:26:18.730Z,77.87
2023-05-19T23:28:45.266Z,78.97
2023-05-19T23:31:11.930Z,78.45
2023-05-19T23:33:38.602Z,78.80
2023-05-19T23:36:07.612Z,79.23
2023-05-19T23:38:35.003Z,77.74
2023-05-19T23:41:02.306Z,78.70
2023-05-19T23:43:28.993Z,79.08
2023-05-19T23:45:55.650Z,80.17
2023-05-19T23:48:22.205Z,79.78
2023-05-19T23:50:48.865Z,79.62
2023-05-19T23:53:15.635Z,79.82
2023-05-19T23:55:42.355Z,80.22
2023-05-19T23:58:09.028Z,81.01
